Thursday, April 28, 2016
19:54 UTC
  |  Log In   |  Register Free
Airport Search:

Dawson Municipal Airport
(16J)

Dawson Municipal Airport Diagram
No Airport Diagram Available

FAA data valid effective Mar 31 2016 - May 26 2016 (unless otherwise noted).

 
 
 
 
 
 
 
 
 
 
 
 
 
 
Current Aviation Weather for 16J

Weather Summary


Current weather conditions are not available for 16J - The nearest NOAA weather station is at ABY, (17 nm SE from 16J)

The most recent METAR observation for 16J was updated at: 12:53 UTC
METAR for 16J is not available. Closest METAR is for KBIJ 32.0 nm NE
KBIJ  (32.0 nm NE)   (most recent observation was updated at 28:19 UTC)
281935Z AUTO 00000KT 10SM SCT022 SCT028 28/23 A2997 RMK AO2

KCXU  (33.2 nm NW)   (most recent observation was updated at 28:19 UTC)
281935Z AUTO 25007KT 10SM SCT026 26/20 A2997 RMK AO2 T02610199

TAF for 16J is not available.
KABY  (17.0 nm NW)   (most recent observation was updatred at 28:17 UTC)
281737Z 2818/2918 25010KT P6SM VCTS SCT030CB BKN100 OVC250 TEMPO 2818/2820 VRB10G25KT 3SM TSRA FM290000 23005KT P6SM SCT040 BKN100


GlobalAir.com is loading additional information.
 Current Weather at ABY
80.0 F° (26.7 C°)

West winds at 5.8 mph
Pressure:
30.02 in
Humidity:
64%
Wind:
West at 5.8 mph
Dew Point:
66.9 F° (19.4 C°)
Visibility:
10.00 mi
16J NOAA Radar




Find All Airport Services Find A Hotel Find A Rental Car Find A Golf Course Find A Restaurant $100 Hamburger



Airport Weather Forecast for 16J

Translated METAR for KACJ (1935 UTC)
METAR:
KACJ 281935Z AUTO 28011KT 10SM CLR 26/17 A2997 RMK AO2 LTG DSNT E
Conditions at:
KACJ (Jimmy Carter Rgnl, GA) observed 1935 UTC 28 April 2016
Temperature:
26°C (78.8°F)
Dewpoint:
17°C (62.6°F) [RH = 57.6]
Pressure:
29.97 inches Hg (1014.9 mb)
Winds:
from the W (280 degrees) at 12.7 mph (11 knots: 5.7 m/s)
Visibility:
10 mile(s)
Ceiling:
at least 12,000 feet AGL
Clouds:
Clear below 12,000 feet AGL
Remarks:
site is un-manned
site is automated and HAS a precipitation sensor

Translated TAF for KABY (Southwest Georgia Rgnl, GA) (1737 UTC)
TAF text:
KABY 281737Z 2818/2918 25010KT P6SM VCTS SCT030CB BKN100 OVC250
Forecast period:
Thursday Apr 28 2016 18:00 UTC - Friday Apr 29 2016 18:00 UTC
Forecast type:
FROM: standard forecast or significant change
Winds:
from the WSW (250 degrees) at 11.5 mph (10 knots: 5.1 m/s)
Visibility:
6 or more mile(s) (9.7+ km)
Ceiling:
10,000 feet AGL
Clouds:
Broken Cloud Cover at 10,000 feet AGL
Overcast Skies at 25,000 feet AGL
Weather:
Moderate In Vicinity Thunderstorm
TAF text:
2818/2820 VRB10G25KT 3SM TSRA
Forecast period:
Friday Apr 29 2016 18:00 UTC - Friday Apr 29 2016 20:00 UTC
Forecast type:
FROM: standard forecast or significant change
Winds:
variable wind direction at 11.5 mph (10 knots: 5.1 m/s)
gusting to 28.8 mph (25 knots: 12.9 m/s)
Visibility:
3 mile(s) (4.8 km)
Ceiling:
Clouds:
Weather:
Moderate Thunderstorm Rain
TAF text:
FM290000 23005KT P6SM SCT040 BKN100
Forecast period:
Friday Apr 29 2016 00:00 UTC - Friday Apr 29 2016 18:00 UTC
Forecast type:
FROM: standard forecast or significant change
Winds:
from the SW (230 degrees) at 5.8 mph (5 knots: 2.6 m/s)
Visibility:
6 or more mile(s) (9.7+ km)
Ceiling:
10,000 feet AGL
Clouds:
Scattered Clouds at 4,000 feet AGL
Broken Cloud Cover at 10,000 feet AGL
Weather:
no significant weather observed at this time
FBO's on the Field
FBO Company Facility Photos Services Transportation Aviation Fuel Prices: Prices include tax
Catering Weather Repair Courtesy Rental Type 100LL JetA JetA+ MOGAS 8087
 
Dawson/Terrell Co. Airport

This FBO has not yet been rated
FS:Independent
Last Updated: Mar-25
Login to update fuel prices
SS:
Contact Dawson/Terrell Co. AirportMore FBO Information
 
Add another FBO Facility Photos Catering Weather Repair Courtesy Rental Type 100LL JetA JetA+ MOGAS 8087
Services Transportation Aviation Fuel Prices: Prices include tax


model-print
model-print
model-print
model-print